Time;durP1;ratioP1;P1;durP2;ratioP2;P2;SDS_P1;SDS_P2;PMS_P1;PMS_P2;Temp;Humidity;BMP_temperature;BMP_pressure;BME280_temperature;BME280_humidity;BME280_pressure;Samples;Min_cycle;Max_cycle;Signal;HPM_P1;HPM_P2
2021/10/12 00:00:25;;;;;;;0.90;0.70;;;7.30;99.90;;;;;;5072086;28;20218;-64
2021/10/12 00:02:54;;;;;;;0.80;0.50;;;7.30;99.90;;;;;;5071706;28;20321;-62
2021/10/12 00:05:22;;;;;;;0.80;0.50;;;7.30;99.90;;;;;;5071296;28;20180;-64
2021/10/12 00:07:50;;;;;;;0.80;0.50;;;7.20;99.90;;;;;;5071616;28;20195;-63
2021/10/12 00:10:18;;;;;;;0.80;0.50;;;7.20;99.90;;;;;;5072005;28;20187;-64
2021/10/12 00:12:46;;;;;;;0.80;0.40;;;7.20;99.90;;;;;;5071927;28;20539;-62
2021/10/12 00:15:15;;;;;;;0.80;0.50;;;7.10;99.90;;;;;;5072077;28;20196;-62
2021/10/12 00:17:44;;;;;;;0.80;0.50;;;7.10;99.90;;;;;;5071930;28;20172;-62
2021/10/12 00:20:13;;;;;;;0.80;0.50;;;7.10;99.90;;;;;;5071975;28;20208;-64
2021/10/12 00:22:41;;;;;;;0.80;0.50;;;7.10;99.90;;;;;;5071393;28;20273;-64
2021/10/12 00:25:09;;;;;;;0.82;0.57;;;7.10;99.90;;;;;;5071473;28;20184;-64
2021/10/12 00:27:38;;;;;;;0.80;0.40;;;7.20;99.90;;;;;;5071571;28;20233;-63
2021/10/12 00:30:07;;;;;;;0.85;0.50;;;7.20;99.90;;;;;;5053713;28;20194;-63
2021/10/12 00:32:36;;;;;;;0.80;0.50;;;7.20;99.90;;;;;;5071883;28;20223;-62
2021/10/12 00:35:06;;;;;;;0.80;0.50;;;7.10;99.90;;;;;;5071856;28;20234;-62
2021/10/12 00:37:34;;;;;;;0.80;0.50;;;7.20;99.90;;;;;;5071629;28;20221;-63
2021/10/12 00:40:05;;;;;;;0.80;0.40;;;7.20;99.90;;;;;;5071826;28;20204;-62
2021/10/12 00:42:33;;;;;;;0.90;0.80;;;7.10;99.90;;;;;;5071198;28;20207;-63
2021/10/12 00:45:03;;;;;;;0.80;0.50;;;7.10;99.90;;;;;;5071260;28;20203;-63
2021/10/12 00:47:31;;;;;;;0.80;0.50;;;7.10;99.90;;;;;;5071636;28;20229;-63
2021/10/12 00:50:01;;;;;;;0.80;0.40;;;7.20;99.90;;;;;;5071421;28;20177;-64
2021/10/12 00:52:30;;;;;;;1.33;0.70;;;7.20;99.90;;;;;;5070855;28;20219;-63
2021/10/12 00:54:59;;;;;;;0.80;0.50;;;7.20;99.90;;;;;;5053168;28;20180;-63
2021/10/12 00:57:27;;;;;;;0.80;0.50;;;7.10;99.90;;;;;;5071026;28;20195;-64
2021/10/12 00:59:55;;;;;;;0.80;0.50;;;7.10;99.90;;;;;;5071051;28;20195;-63
2021/10/12 01:02:23;;;;;;;0.90;0.73;;;7.10;99.90;;;;;;5070953;28;20258;-63
2021/10/12 01:04:51;;;;;;;1.80;1.58;;;7.10;99.90;;;;;;5071108;28;20187;-63
2021/10/12 01:07:19;;;;;;;2.67;0.82;;;7.10;99.90;;;;;;5071094;28;20596;-63
2021/10/12 01:09:49;;;;;;;0.80;0.50;;;7.20;99.90;;;;;;5070955;28;20538;-63
2021/10/12 01:12:17;;;;;;;2.67;0.70;;;7.20;99.90;;;;;;5070774;28;20235;-62
2021/10/12 01:14:46;;;;;;;0.80;0.50;;;7.20;99.90;;;;;;5053070;28;20199;-64
2021/10/12 01:17:14;;;;;;;0.90;0.60;;;7.30;99.90;;;;;;5073013;28;20195;-63
2021/10/12 01:19:42;;;;;;;0.80;0.50;;;7.30;99.90;;;;;;5074549;28;20287;-63
2021/10/12 01:22:11;;;;;;;1.33;0.60;;;7.40;99.90;;;;;;5074541;28;20633;-64
2021/10/12 01:24:40;;;;;;;0.80;0.50;;;7.50;99.90;;;;;;5075075;28;20184;-63
2021/10/12 01:27:08;;;;;;;0.80;0.60;;;7.50;99.90;;;;;;5074478;28;20180;-64
2021/10/12 01:29:36;;;;;;;0.80;0.50;;;7.50;99.90;;;;;;5074458;28;20527;-64
2021/10/12 01:32:04;;;;;;;0.80;0.50;;;7.40;99.90;;;;;;5074346;28;20208;-63
2021/10/12 01:34:32;;;;;;;0.80;0.50;;;7.40;99.90;;;;;;5074427;28;20177;-63
2021/10/12 01:37:01;;;;;;;1.27;1.13;;;7.40;99.90;;;;;;5074285;28;20644;-64
2021/10/12 01:39:30;;;;;;;0.80;0.50;;;7.40;99.90;;;;;;5074031;28;20207;-63
2021/10/12 01:41:58;;;;;;;0.80;0.50;;;7.40;99.90;;;;;;5073971;28;20215;-63
2021/10/12 01:44:26;;;;;;;11.45;2.80;;;7.40;99.90;;;;;;5074275;28;20695;-64
2021/10/12 01:46:54;;;;;;;0.80;0.50;;;7.30;99.90;;;;;;5074327;28;20222;-64
2021/10/12 01:49:23;;;;;;;0.80;0.50;;;7.30;99.90;;;;;;5073988;28;20180;-64
2021/10/12 01:51:51;;;;;;;1.25;1.15;;;7.20;99.90;;;;;;5073774;28;20261;-63
2021/10/12 01:54:22;;;;;;;0.80;0.50;;;7.10;99.90;;;;;;5073878;28;20537;-63
2021/10/12 01:56:53;;;;;;;1.05;0.60;;;7.10;99.90;;;;;;5073991;28;20165;-63
2021/10/12 01:59:22;;;;;;;0.80;0.40;;;7.00;99.90;;;;;;5073705;28;20660;-64
2021/10/12 02:01:50;;;;;;;0.80;0.60;;;7.00;99.90;;;;;;5073969;28;20758;-63
2021/10/12 02:04:18;;;;;;;0.80;0.50;;;6.90;99.90;;;;;;5073919;28;20256;-63
2021/10/12 02:06:46;;;;;;;0.80;0.50;;;6.90;99.90;;;;;;5073653;28;20198;-62
2021/10/12 02:09:14;;;;;;;0.80;0.50;;;6.90;99.90;;;;;;5073812;28;20241;-62
2021/10/12 02:11:43;;;;;;;0.80;0.47;;;6.80;99.90;;;;;;5073802;28;20216;-63
2021/10/12 02:14:12;;;;;;;0.98;0.88;;;6.80;99.90;;;;;;5074206;28;20173;-63
2021/10/12 02:16:40;;;;;;;0.80;0.50;;;6.80;99.90;;;;;;5074316;28;20176;-63
2021/10/12 02:19:09;;;;;;;0.80;0.50;;;6.80;99.90;;;;;;5056085;28;20242;-63
2021/10/12 02:21:37;;;;;;;0.80;0.50;;;6.80;99.90;;;;;;5073737;28;20220;-64
2021/10/12 02:24:05;;;;;;;0.80;0.50;;;6.60;99.90;;;;;;5073473;28;20196;-64
2021/10/12 02:26:34;;;;;;;0.80;0.40;;;6.70;99.90;;;;;;5055972;28;20180;-64
2021/10/12 02:29:02;;;;;;;2.90;1.88;;;6.70;99.90;;;;;;5073724;28;20656;-61
2021/10/12 02:31:31;;;;;;;0.82;0.63;;;6.70;99.90;;;;;;5073656;28;20208;-62
2021/10/12 02:34:00;;;;;;;0.80;0.50;;;6.70;99.90;;;;;;5073575;28;20214;-63
2021/10/12 02:36:28;;;;;;;0.80;0.50;;;6.80;99.90;;;;;;5073503;28;20195;-64
2021/10/12 02:38:56;;;;;;;0.80;0.50;;;6.70;99.90;;;;;;5073559;28;20191;-64
2021/10/12 02:41:24;;;;;;;0.80;0.40;;;6.70;99.90;;;;;;5055164;28;20216;-63
2021/10/12 02:43:52;;;;;;;0.80;0.50;;;6.60;99.90;;;;;;5087324;22;20207;-68
2021/10/12 02:46:20;;;;;;;0.80;0.50;;;6.60;99.90;;;;;;5045571;28;20182;-68
2021/10/12 02:48:50;;;;;;;0.80;0.50;;;6.60;99.90;;;;;;5032475;28;20185;-68
2021/10/12 02:51:18;;;;;;;0.90;0.68;;;6.60;99.90;;;;;;5032568;28;20202;-67
2021/10/12 02:53:46;;;;;;;0.80;0.50;;;6.60;99.90;;;;;;5032375;28;20197;-69
2021/10/12 02:56:14;;;;;;;0.80;0.50;;;6.60;99.90;;;;;;5032303;28;20193;-66
2021/10/12 02:58:42;;;;;;;0.80;0.50;;;6.60;99.90;;;;;;5032448;28;20590;-67
2021/10/12 03:01:10;;;;;;;0.80;0.50;;;6.60;99.90;;;;;;5032262;28;20725;-67
2021/10/12 03:03:39;;;;;;;1.08;0.93;;;6.60;99.90;;;;;;5031889;28;20197;-67
2021/10/12 03:06:08;;;;;;;0.80;0.50;;;6.60;99.90;;;;;;5032309;28;20186;-67
2021/10/12 03:08:36;;;;;;;1.00;0.75;;;6.70;99.90;;;;;;5047521;28;20335;-67
2021/10/12 03:11:05;;;;;;;0.80;0.50;;;6.70;99.90;;;;;;5032172;28;20243;-67
2021/10/12 03:13:33;;;;;;;0.80;0.50;;;6.70;99.90;;;;;;5031873;28;20185;-68
2021/10/12 03:16:01;;;;;;;0.80;0.40;;;6.70;99.90;;;;;;5032205;28;20173;-68
2021/10/12 03:18:30;;;;;;;0.80;0.40;;;6.70;99.90;;;;;;5032182;28;20189;-68
2021/10/12 03:20:59;;;;;;;0.80;0.50;;;6.70;99.90;;;;;;5031985;28;20213;-67
2021/10/12 03:23:29;;;;;;;0.80;0.50;;;6.70;99.90;;;;;;5032050;28;20202;-67
2021/10/12 03:25:57;;;;;;;1.15;0.98;;;6.70;99.90;;;;;;5030886;28;20197;-67
2021/10/12 03:28:25;;;;;;;0.80;0.50;;;6.70;99.90;;;;;;5031138;28;20601;-68
2021/10/12 03:30:53;;;;;;;0.80;0.50;;;6.70;99.90;;;;;;5032037;28;20177;-67
2021/10/12 03:33:21;;;;;;;0.80;0.45;;;6.80;99.90;;;;;;5031956;28;20200;-68
2021/10/12 03:35:55;;;;;;;0.80;0.50;;;6.80;99.90;;;;;;5030552;28;20220;-68
2021/10/12 03:38:23;;;;;;;0.80;0.40;;;6.80;99.90;;;;;;5031797;28;20732;-67
2021/10/12 03:40:53;;;;;;;0.80;0.50;;;6.90;99.90;;;;;;5031355;28;20295;-66
2021/10/12 03:43:21;;;;;;;0.80;0.40;;;6.90;99.90;;;;;;5031564;28;20251;-68
2021/10/12 03:45:49;;;;;;;0.80;0.50;;;7.00;99.90;;;;;;5047372;28;20213;-66
2021/10/12 03:48:17;;;;;;;0.80;0.47;;;6.90;99.90;;;;;;5031903;28;20193;-69
2021/10/12 03:50:45;;;;;;;0.80;0.50;;;6.90;99.90;;;;;;5031627;28;20181;-67
2021/10/12 03:53:14;;;;;;;0.80;0.60;;;6.90;99.90;;;;;;5047286;28;20237;-67
2021/10/12 03:55:42;;;;;;;1.42;0.60;;;6.90;99.90;;;;;;5031942;28;20177;-66
2021/10/12 03:58:12;;;;;;;0.80;0.50;;;7.00;99.90;;;;;;5046962;28;20288;-68
2021/10/12 04:00:40;;;;;;;0.80;0.50;;;7.00;99.90;;;;;;5031171;28;20539;-67
2021/10/12 04:03:09;;;;;;;0.80;0.50;;;7.00;99.90;;;;;;5031932;28;20298;-68
2021/10/12 04:05:37;;;;;;;0.80;0.50;;;7.00;99.90;;;;;;5031667;28;20185;-68
2021/10/12 04:08:05;;;;;;;0.80;0.50;;;7.10;99.90;;;;;;5031137;28;20178;-68
2021/10/12 04:10:34;;;;;;;0.80;0.40;;;7.10;99.90;;;;;;5031055;28;20370;-70
2021/10/12 04:13:03;;;;;;;1.15;0.60;;;7.20;99.90;;;;;;5030754;28;20213;-67
2021/10/12 04:15:35;;;;;;;0.80;0.40;;;7.20;99.90;;;;;;5031145;28;20653;-68
2021/10/12 04:18:03;;;;;;;0.80;0.50;;;7.30;99.90;;;;;;5030938;28;20239;-68
2021/10/12 04:20:33;;;;;;;0.80;0.50;;;7.30;99.90;;;;;;5031009;28;20192;-67
2021/10/12 04:23:02;;;;;;;1.00;0.60;;;7.40;99.90;;;;;;5030810;28;20205;-68
2021/10/12 04:25:30;;;;;;;0.80;0.50;;;7.40;99.90;;;;;;5031045;28;20543;-67
2021/10/12 04:27:58;;;;;;;0.80;0.50;;;7.50;99.90;;;;;;5030884;28;20657;-71
2021/10/12 04:30:26;;;;;;;1.83;0.75;;;7.50;99.90;;;;;;5031009;28;20224;-68
2021/10/12 04:32:56;;;;;;;0.80;0.50;;;7.60;99.90;;;;;;5030808;28;20217;-67
2021/10/12 04:35:24;;;;;;;0.80;0.50;;;7.70;99.90;;;;;;5031088;28;20177;-68
2021/10/12 04:37:52;;;;;;;0.80;0.50;;;7.70;99.90;;;;;;5031057;28;20292;-68
2021/10/12 04:40:20;;;;;;;0.80;0.40;;;7.70;99.90;;;;;;5031081;28;20190;-67
2021/10/12 04:42:48;;;;;;;0.80;0.40;;;7.70;99.90;;;;;;5030933;28;20220;-68
2021/10/12 04:45:17;;;;;;;0.80;0.50;;;7.80;99.90;;;;;;5031030;28;20208;-68
2021/10/12 04:47:45;;;;;;;0.80;0.47;;;7.70;99.90;;;;;;5031130;28;20232;-68
2021/10/12 04:50:14;;;;;;;1.27;0.80;;;7.70;99.90;;;;;;5031870;28;20197;-67
2021/10/12 04:52:43;;;;;;;0.80;0.50;;;7.70;99.90;;;;;;5034666;28;20225;-68
2021/10/12 04:55:12;;;;;;;0.80;0.50;;;7.80;99.90;;;;;;5034993;28;20181;-68
2021/10/12 04:57:40;;;;;;;0.80;0.50;;;7.80;99.90;;;;;;5034781;28;20605;-67
2021/10/12 05:00:11;;;;;;;0.80;0.40;;;7.80;99.90;;;;;;5035330;28;20170;-68
2021/10/12 05:02:39;;;;;;;1.27;0.57;;;7.90;99.90;;;;;;5034845;28;20216;-68
2021/10/12 05:05:08;;;;;;;0.80;0.40;;;7.90;99.90;;;;;;5034768;28;20213;-68
2021/10/12 05:07:39;;;;;;;0.80;0.47;;;7.90;99.90;;;;;;5035467;28;20276;-68
2021/10/12 05:10:08;;;;;;;0.80;0.50;;;7.90;99.90;;;;;;5036545;28;20203;-67
2021/10/12 05:12:37;;;;;;;0.90;0.50;;;7.90;99.90;;;;;;5034265;28;20240;-68
2021/10/12 05:15:07;;;;;;;0.80;0.50;;;7.90;99.90;;;;;;5036834;28;20643;-67
2021/10/12 05:17:38;;;;;;;0.80;0.50;;;7.90;99.90;;;;;;5037039;28;20194;-69
2021/10/12 05:20:09;;;;;;;0.80;0.52;;;7.90;99.90;;;;;;5036939;28;20182;-67
2021/10/12 05:22:52;;;;;;;1.05;0.80;;;7.90;99.90;;;;;;5035256;28;20217;-67
2021/10/12 05:25:57;;;;;;;0.80;0.47;;;7.90;99.90;;;;;;5034164;28;20185;-69
2021/10/12 05:28:48;;;;;;;0.80;0.47;;;7.70;99.90;;;;;;5034420;28;20724;-67
2021/10/12 05:31:32;;;;;;;0.80;0.50;;;7.60;99.90;;;;;;5034121;28;20197;-67
2021/10/12 05:34:41;;;;;;;0.80;0.50;;;7.50;99.90;;;;;;5034690;28;20170;-68
2021/10/12 05:37:46;;;;;;;1.27;0.68;;;7.60;99.90;;;;;;5047276;28;20232;-68
2021/10/12 05:40:18;;;;;;;0.80;0.60;;;7.60;99.90;;;;;;5034116;28;20188;-69
2021/10/12 05:42:57;;;;;;;0.90;0.50;;;7.60;99.90;;;;;;5033663;28;20244;-68
2021/10/12 05:45:59;;;;;;;0.90;0.60;;;7.60;99.90;;;;;;5033176;28;20220;-69
2021/10/12 05:48:44;;;;;;;0.80;0.40;;;7.60;99.90;;;;;;5033762;28;20193;-69
2021/10/12 05:51:32;;;;;;;0.80;0.47;;;7.60;99.90;;;;;;5033749;28;20220;-69
2021/10/12 05:54:14;;;;;;;2.00;0.98;;;7.70;99.90;;;;;;5033488;28;20194;-67
2021/10/12 05:59:52;;;;;;;0.80;0.40;;;7.80;99.90;;;;;;5033566;28;20181;-67
2021/10/12 06:05:25;;;;;;;0.80;0.50;;;7.90;99.90;;;;;;5016621;28;20287;-67
2021/10/12 06:08:02;;;;;;;1.05;0.60;;;8.00;99.90;;;;;;5033201;28;20193;-71
2021/10/12 06:10:37;;;;;;;0.90;0.70;;;8.10;99.90;;;;;;5033293;28;20248;-68
2021/10/12 06:13:31;;;;;;;1.10;0.50;;;8.10;99.90;;;;;;5031348;28;20602;-67
2021/10/12 06:19:00;;;;;;;0.80;0.57;;;8.20;99.90;;;;;;5031511;28;20192;-64
2021/10/12 06:21:33;;;;;;;0.80;0.50;;;8.20;99.90;;;;;;5033016;28;21023;-66
2021/10/12 06:24:13;;;;;;;0.90;0.52;;;8.20;99.90;;;;;;5033047;28;20252;-66
2021/10/12 06:26:48;;;;;;;0.80;0.50;;;8.20;99.90;;;;;;5032651;28;20561;-65
2021/10/12 06:29:24;;;;;;;1.00;0.60;;;8.30;99.90;;;;;;5033063;28;20264;-66
2021/10/12 06:31:57;;;;;;;0.80;0.50;;;8.40;99.90;;;;;;5032625;28;20209;-67
2021/10/12 06:34:32;;;;;;;0.80;0.45;;;8.50;99.90;;;;;;5032727;28;20189;-66
2021/10/12 06:37:20;;;;;;;0.80;0.50;;;8.60;99.90;;;;;;5032704;28;20272;-66
2021/10/12 06:40:04;;;;;;;1.30;0.70;;;8.60;99.90;;;;;;5032747;28;20224;-68
2021/10/12 06:42:44;;;;;;;0.80;0.50;;;8.60;99.90;;;;;;5032563;28;20244;-68
2021/10/12 06:45:23;;;;;;;1.13;0.50;;;8.70;99.90;;;;;;5041965;28;20196;-67
2021/10/12 06:48:16;;;;;;;0.80;0.50;;;8.70;99.90;;;;;;5072672;28;20210;-67
2021/10/12 06:51:14;;;;;;;;;;;;;;;;;;;;;
2021/10/12 06:54:09;;;;;;;0.80;0.50;;;8.90;99.90;;;;;;5072086;28;20254;-67
2021/10/12 06:57:00;;;;;;;1.52;1.42;;;9.10;99.90;;;;;;5032152;28;20239;-67
2021/10/12 06:59:40;;;;;;;0.80;0.47;;;9.10;99.90;;;;;;5052164;28;20219;-67
2021/10/12 07:02:21;;;;;;;0.80;0.52;;;9.10;99.90;;;;;;5050948;28;20298;-68
2021/10/12 07:05:11;;;;;;;0.80;0.50;;;9.00;99.90;;;;;;5051808;28;20193;-67
2021/10/12 07:08:09;;;;;;;0.80;0.50;;;9.20;99.90;;;;;;5051891;28;20179;-69
2021/10/12 07:11:03;;;;;;;0.80;0.50;;;9.20;99.90;;;;;;5051972;28;20193;-68
2021/10/12 07:13:32;;;;;;;1.75;1.65;;;9.40;99.90;;;;;;5054149;28;20676;-70
2021/10/12 07:16:09;;;;;;;0.95;0.52;;;9.40;99.90;;;;;;5051700;28;20658;-68
2021/10/12 07:18:56;;;;;;;1.60;1.30;;;9.50;99.90;;;;;;5051944;28;20196;-68
2021/10/12 07:21:34;;;;;;;0.90;0.50;;;9.50;99.90;;;;;;5051872;28;20228;-68
2021/10/12 07:24:17;;;;;;;0.80;0.50;;;9.30;99.90;;;;;;5051658;28;20558;-67
2021/10/12 07:26:54;;;;;;;2.10;0.63;;;9.40;99.90;;;;;;5051668;28;20196;-69
2021/10/12 07:29:31;;;;;;;0.90;0.60;;;9.30;99.90;;;;;;5051581;28;20191;-68
2021/10/12 07:32:03;;;;;;;0.80;0.50;;;9.40;99.90;;;;;;5051729;28;20216;-69
2021/10/12 07:34:37;;;;;;;0.90;0.60;;;9.40;99.90;;;;;;5051988;28;20584;-70
2021/10/12 07:37:07;;;;;;;1.55;1.17;;;9.50;99.90;;;;;;5051988;28;20322;-68
2021/10/12 07:39:41;;;;;;;0.88;0.63;;;9.50;99.90;;;;;;5051887;28;20200;-68
2021/10/12 07:42:16;;;;;;;0.80;0.50;;;9.50;99.90;;;;;;5046277;28;20223;-67
2021/10/12 07:44:45;;;;;;;1.17;1.00;;;9.70;99.90;;;;;;5051379;28;20254;-68
2021/10/12 07:47:13;;;;;;;1.77;1.05;;;9.80;99.90;;;;;;5051805;28;20250;-68
2021/10/12 07:49:43;;;;;;;1.08;0.90;;;9.90;99.90;;;;;;5051473;28;20184;-69
2021/10/12 07:52:11;;;;;;;0.90;0.50;;;10.20;99.90;;;;;;5051534;28;20232;-68
2021/10/12 07:54:47;;;;;;;2.28;0.70;;;10.30;99.90;;;;;;5051579;28;20177;-68
2021/10/12 07:57:17;;;;;;;1.00;0.50;;;10.20;99.90;;;;;;5051462;28;20177;-68
2021/10/12 07:59:46;;;;;;;1.20;0.63;;;10.20;99.90;;;;;;5051469;28;20284;-68
2021/10/12 08:02:16;;;;;;;1.35;0.93;;;10.30;99.90;;;;;;5051647;28;20208;-67
2021/10/12 08:04:45;;;;;;;0.90;0.52;;;10.10;99.90;;;;;;5051192;28;20188;-70
2021/10/12 08:07:13;;;;;;;1.30;0.85;;;10.20;99.90;;;;;;5051713;28;20177;-67
2021/10/12 08:09:41;;;;;;;0.80;0.50;;;10.10;99.90;;;;;;5051639;28;20231;-68
2021/10/12 08:12:10;;;;;;;0.80;0.50;;;10.00;99.90;;;;;;5051115;28;20208;-67
2021/10/12 08:14:40;;;;;;;0.95;0.55;;;10.00;99.90;;;;;;5051222;28;20169;-68
2021/10/12 08:17:08;;;;;;;1.10;0.60;;;10.00;99.90;;;;;;5051343;28;20234;-68
2021/10/12 08:19:37;;;;;;;0.80;0.50;;;10.10;99.90;;;;;;5033391;28;20201;-68
2021/10/12 08:22:06;;;;;;;0.90;0.60;;;10.00;99.90;;;;;;5053025;28;20216;-68
2021/10/12 08:24:35;;;;;;;1.00;0.57;;;9.80;99.90;;;;;;5071392;28;20300;-69
2021/10/12 08:27:03;;;;;;;0.80;0.50;;;10.00;99.90;;;;;;5061738;28;20197;-69
2021/10/12 08:29:31;;;;;;;0.80;0.50;;;10.30;99.90;;;;;;5055076;28;20180;-67
2021/10/12 08:31:59;;;;;;;1.35;0.50;;;10.00;99.90;;;;;;5044721;28;20208;-68
2021/10/12 08:34:27;;;;;;;0.80;0.50;;;10.10;99.90;;;;;;5038462;28;20247;-67
2021/10/12 08:36:56;;;;;;;0.80;0.50;;;10.00;99.90;;;;;;5054599;28;20645;-66
2021/10/12 08:39:31;;;;;;;0.80;0.50;;;10.00;99.90;;;;;;5054910;28;20208;-68
2021/10/12 08:42:05;;;;;;;0.90;0.52;;;9.80;99.90;;;;;;5054813;28;20837;-68
2021/10/12 08:44:48;;;;;;;0.80;0.47;;;9.90;99.90;;;;;;5054035;28;20207;-68
2021/10/12 08:47:17;;;;;;;0.80;0.50;;;10.10;99.90;;;;;;5054934;28;20203;-68
2021/10/12 08:49:46;;;;;;;0.80;0.45;;;10.30;99.90;;;;;;5054852;28;20231;-68
2021/10/12 08:52:14;;;;;;;2.75;0.73;;;10.50;99.90;;;;;;5054599;28;20209;-67
2021/10/12 08:54:43;;;;;;;3.90;0.88;;;10.70;99.90;;;;;;5054721;28;20220;-69
2021/10/12 08:57:12;;;;;;;1.02;0.60;;;10.60;99.90;;;;;;5054485;28;20183;-68
2021/10/12 08:59:44;;;;;;;0.90;0.50;;;10.40;99.90;;;;;;5068787;22;20244;-63
2021/10/12 09:02:17;;;;;;;1.25;0.65;;;10.20;99.90;;;;;;5053936;28;20216;-64
2021/10/12 09:04:46;;;;;;;1.00;0.50;;;10.00;99.90;;;;;;5054822;28;20212;-64
2021/10/12 09:07:18;;;;;;;0.80;0.50;;;9.90;99.90;;;;;;5054916;28;20238;-64
2021/10/12 09:09:49;;;;;;;0.90;0.50;;;9.80;99.90;;;;;;5054992;28;20243;-64
2021/10/12 09:12:18;;;;;;;0.80;0.45;;;9.60;99.90;;;;;;5054553;28;20216;-64
2021/10/12 09:14:54;;;;;;;0.80;0.50;;;9.50;99.90;;;;;;5054751;28;20173;-64
2021/10/12 09:17:31;;;;;;;0.80;0.50;;;9.30;99.90;;;;;;5054947;28;20180;-64
2021/10/12 09:20:01;;;;;;;1.10;0.50;;;9.30;99.90;;;;;;5054860;28;20653;-65
2021/10/12 09:22:32;;;;;;;0.80;0.50;;;9.40;99.90;;;;;;5054522;28;20213;-64
2021/10/12 09:25:10;;;;;;;0.80;0.50;;;9.70;99.90;;;;;;5053116;28;20232;-64
2021/10/12 09:27:52;;;;;;;0.90;0.55;;;9.90;99.90;;;;;;5054627;28;20165;-61
2021/10/12 09:30:28;;;;;;;0.80;0.50;;;10.20;99.90;;;;;;5053544;28;20286;-63
2021/10/12 09:33:05;;;;;;;0.80;0.50;;;10.30;99.90;;;;;;5053457;28;20712;-62
2021/10/12 09:35:34;;;;;;;0.80;0.50;;;10.30;99.90;;;;;;5054684;28;20267;-63
2021/10/12 09:38:07;;;;;;;0.80;0.50;;;10.30;99.90;;;;;;5051727;28;20280;-63
2021/10/12 09:40:39;;;;;;;0.80;0.50;;;10.20;99.90;;;;;;5037311;28;20260;-65
2021/10/12 09:43:08;;;;;;;0.80;0.50;;;10.20;99.90;;;;;;5034030;28;20213;-64
2021/10/12 09:45:42;;;;;;;0.90;0.50;;;10.20;99.90;;;;;;5034206;28;20221;-64
2021/10/12 09:48:31;;;;;;;0.80;0.50;;;10.30;99.90;;;;;;5035521;28;20174;-63
2021/10/12 09:51:10;;;;;;;0.80;0.40;;;10.60;99.90;;;;;;5035014;28;20188;-63
2021/10/12 09:53:39;;;;;;;0.80;0.47;;;11.10;99.90;;;;;;5034009;28;20269;-63
2021/10/12 09:56:08;;;;;;;0.80;0.40;;;11.60;99.90;;;;;;5034338;28;20432;-63
2021/10/12 09:58:37;;;;;;;0.90;0.60;;;12.00;99.90;;;;;;5032840;28;20440;-63
2021/10/12 10:01:06;;;;;;;0.80;0.50;;;12.20;99.90;;;;;;5035670;28;20412;-63
2021/10/12 10:03:35;;;;;;;1.17;0.50;;;11.90;99.90;;;;;;5053562;28;20458;-63
2021/10/12 10:06:08;;;;;;;0.93;0.60;;;11.80;99.90;;;;;;5053719;28;20432;-63
2021/10/12 10:08:42;;;;;;;0.80;0.50;;;12.00;99.90;;;;;;5053692;28;20418;-63
2021/10/12 10:11:32;;;;;;;0.83;0.47;;;12.00;99.90;;;;;;5053514;28;20454;-65
2021/10/12 10:14:01;;;;;;;0.80;0.40;;;11.90;99.90;;;;;;5053430;28;20415;-64
2021/10/12 10:16:32;;;;;;;0.80;0.40;;;11.70;99.90;;;;;;5053151;28;20435;-64
2021/10/12 10:19:01;;;;;;;0.80;0.40;;;11.80;99.90;;;;;;5053644;28;20423;-63
2021/10/12 10:21:29;;;;;;;0.90;0.50;;;11.90;99.90;;;;;;5053816;28;20474;-63
2021/10/12 10:24:00;;;;;;;1.00;0.70;;;12.10;99.90;;;;;;5053564;28;20935;-64
2021/10/12 10:26:31;;;;;;;0.87;0.50;;;12.40;99.90;;;;;;5053541;28;20411;-63
2021/10/12 10:29:21;;;;;;;0.90;0.50;;;12.70;99.90;;;;;;5052241;28;20431;-63
2021/10/12 10:32:14;;;;;;;0.80;0.50;;;13.00;99.90;;;;;;5013236;28;20470;-64
2021/10/12 10:34:44;;;;;;;2.57;0.60;;;12.80;99.90;;;;;;5013506;28;20432;-64
2021/10/12 10:37:32;;;;;;;1.00;0.50;;;12.30;99.90;;;;;;5013235;28;20416;-64
2021/10/12 10:40:23;;;;;;;0.90;0.50;;;11.50;99.90;;;;;;5025392;28;20399;-63
2021/10/12 10:43:11;;;;;;;0.80;0.50;;;11.10;99.90;;;;;;5023440;28;20488;-64
2021/10/12 10:45:51;;;;;;;0.80;0.40;;;11.00;99.90;;;;;;5031604;28;20555;-63
2021/10/12 10:48:22;;;;;;;0.80;0.50;;;11.20;99.90;;;;;;5032849;28;20408;-63
2021/10/12 10:51:23;;;;;;;0.80;0.40;;;11.40;99.90;;;;;;5033050;28;20436;-63
2021/10/12 10:53:51;;;;;;;0.80;0.50;;;11.90;99.90;;;;;;5033141;28;20854;-63
2021/10/12 10:56:22;;;;;;;0.80;0.40;;;12.20;99.90;;;;;;5031498;28;20440;-64
2021/10/12 10:59:32;;;;;;;0.80;0.50;;;12.50;99.90;;;;;;5032811;28;20498;-63
2021/10/12 11:02:00;;;;;;;0.80;0.50;;;12.30;99.90;;;;;;5021265;28;20440;-63
2021/10/12 11:04:41;;;;;;;0.80;0.50;;;12.60;99.90;;;;;;5032565;28;20479;-63
2021/10/12 11:07:10;;;;;;;0.90;0.60;;;12.40;99.90;;;;;;5032527;28;20416;-63
2021/10/12 11:09:43;;;;;;;0.90;0.50;;;12.50;99.90;;;;;;5031120;28;20448;-64
2021/10/12 11:12:22;;;;;;;0.80;0.50;;;12.50;99.90;;;;;;5032938;28;20440;-63
2021/10/12 11:14:55;;;;;;;0.97;0.60;;;12.40;99.90;;;;;;5032465;28;20420;-63
2021/10/12 11:17:25;;;;;;;0.90;0.60;;;11.90;99.90;;;;;;5032508;28;20954;-63
2021/10/12 11:19:53;;;;;;;0.80;0.40;;;11.40;99.90;;;;;;5032363;28;20428;-62
2021/10/12 11:22:22;;;;;;;0.90;0.50;;;11.30;99.90;;;;;;5032105;28;20512;-62
2021/10/12 11:24:51;;;;;;;0.90;0.50;;;11.10;99.90;;;;;;5031920;28;20459;-63
2021/10/12 11:27:42;;;;;;;0.83;0.47;;;10.90;99.90;;;;;;5032446;28;20420;-63
2021/10/12 11:30:14;;;;;;;0.80;0.40;;;10.70;99.90;;;;;;5031275;28;20783;-63
2021/10/12 11:32:44;;;;;;;1.07;0.67;;;10.60;99.90;;;;;;5033182;28;20459;-63
2021/10/12 11:35:13;;;;;;;0.80;0.50;;;10.60;99.90;;;;;;5032760;28;20415;-62
2021/10/12 11:37:51;;;;;;;0.90;0.60;;;10.80;99.90;;;;;;5032337;28;20193;-64
2021/10/12 11:40:23;;;;;;;0.80;0.50;;;11.10;99.90;;;;;;5031895;28;20935;-63
2021/10/12 11:42:52;;;;;;;1.00;0.50;;;11.30;99.90;;;;;;5032175;28;20526;-64
2021/10/12 11:45:22;;;;;;;0.90;0.50;;;11.60;99.90;;;;;;5032553;28;20471;-64
2021/10/12 11:47:50;;;;;;;1.53;0.70;;;12.00;99.90;;;;;;5032333;28;20495;-63
2021/10/12 11:50:25;;;;;;;0.87;0.50;;;12.20;99.90;;;;;;5032854;28;20834;-63
2021/10/12 11:52:55;;;;;;;0.80;0.50;;;12.30;99.90;;;;;;5032805;28;20476;-63
2021/10/12 11:55:26;;;;;;;0.90;0.50;;;12.30;99.90;;;;;;5031951;28;20423;-64
2021/10/12 11:58:10;;;;;;;0.80;0.50;;;12.00;99.90;;;;;;5030464;28;20490;-64
2021/10/12 12:00:40;;;;;;;0.90;0.50;;;11.80;99.90;;;;;;5031205;28;20440;-63
2021/10/12 12:03:19;;;;;;;1.20;0.60;;;11.60;99.90;;;;;;5031611;28;20467;-64
2021/10/12 12:05:55;;;;;;;0.80;0.50;;;11.40;99.90;;;;;;5031668;28;20502;-64
2021/10/12 12:08:26;;;;;;;0.80;0.40;;;11.40;99.90;;;;;;5031635;28;20420;-64
2021/10/12 12:10:56;;;;;;;0.83;0.50;;;11.40;99.90;;;;;;5031723;28;20420;-64
2021/10/12 12:13:27;;;;;;;1.00;0.60;;;11.50;99.90;;;;;;5031743;28;20430;-63
2021/10/12 12:15:56;;;;;;;0.90;0.50;;;11.60;99.90;;;;;;5031685;28;20904;-63
2021/10/12 12:18:27;;;;;;;3.53;1.83;;;11.70;99.90;;;;;;5031630;28;20424;-63
2021/10/12 12:20:57;;;;;;;0.80;0.40;;;11.90;99.90;;;;;;5031661;28;20447;-64
2021/10/12 12:23:33;;;;;;;0.90;0.60;;;12.20;99.90;;;;;;5031603;28;20778;-63
2021/10/12 12:26:01;;;;;;;0.80;0.40;;;12.30;99.90;;;;;;5032027;28;20443;-64
2021/10/12 12:28:30;;;;;;;0.90;0.50;;;12.40;99.90;;;;;;5031916;28;20771;-64
2021/10/12 12:31:00;;;;;;;2.40;1.37;;;12.60;99.90;;;;;;5031825;28;20435;-63
2021/10/12 12:33:41;;;;;;;0.90;0.50;;;12.90;99.90;;;;;;5030583;28;20455;-64
2021/10/12 12:36:09;;;;;;;0.80;0.40;;;13.10;99.90;;;;;;5031446;28;20524;-64
2021/10/12 12:38:39;;;;;;;1.20;0.70;;;13.00;99.90;;;;;;5032639;28;20432;-64
2021/10/12 12:41:18;;;;;;;0.80;0.50;;;13.00;99.90;;;;;;5033464;28;20789;-64
2021/10/12 12:43:56;;;;;;;0.80;0.50;;;13.00;99.90;;;;;;5033409;28;20408;-63
2021/10/12 12:46:27;;;;;;;0.90;0.50;;;13.20;99.90;;;;;;5031668;28;20451;-64
2021/10/12 12:49:10;;;;;;;0.90;0.50;;;13.20;99.90;;;;;;5031482;28;20808;-64
2021/10/12 12:51:45;;;;;;;0.80;0.40;;;13.30;99.90;;;;;;5029946;28;20463;-64
2021/10/12 12:54:34;;;;;;;0.90;0.50;;;13.30;99.90;;;;;;5031574;28;20789;-64
2021/10/12 12:57:08;;;;;;;0.80;0.50;;;12.90;99.90;;;;;;5031161;28;20428;-64
2021/10/12 12:59:37;;;;;;;0.90;0.47;;;12.70;99.90;;;;;;5029723;28;20443;-64
2021/10/12 13:02:17;;;;;;;0.80;0.40;;;12.60;99.90;;;;;;5023821;28;20445;-64
2021/10/12 13:04:46;;;;;;;0.80;0.50;;;12.70;99.90;;;;;;5023864;28;20424;-63
2021/10/12 13:07:15;;;;;;;0.80;0.50;;;12.70;99.90;;;;;;5017203;28;21015;-64
2021/10/12 13:09:46;;;;;;;0.90;0.60;;;12.60;99.90;;;;;;5023083;28;20747;-62
2021/10/12 13:12:18;;;;;;;1.50;1.40;;;12.60;99.90;;;;;;5016029;28;20562;-62
2021/10/12 13:14:47;;;;;;;0.80;0.50;;;12.70;99.90;;;;;;5015059;28;20421;-64
2021/10/12 13:17:19;;;;;;;1.63;0.50;;;12.80;99.90;;;;;;5015880;28;20892;-64
2021/10/12 13:19:48;;;;;;;1.00;0.60;;;13.00;99.90;;;;;;5014770;28;20460;-63
2021/10/12 13:22:16;;;;;;;0.87;0.50;;;13.20;99.90;;;;;;5014368;28;21008;-64
2021/10/12 13:24:45;;;;;;;0.80;0.40;;;13.20;99.90;;;;;;5014511;28;20409;-64
2021/10/12 13:27:14;;;;;;;0.90;0.60;;;13.20;99.90;;;;;;5014497;28;20945;-63
2021/10/12 13:29:42;;;;;;;0.80;0.50;;;13.20;99.90;;;;;;5016583;28;20395;-64
2021/10/12 13:32:10;;;;;;;0.80;0.50;;;13.00;99.90;;;;;;5034142;28;20437;-64